Time;durP1;ratioP1;P1;durP2;ratioP2;P2;SDS_P1;SDS_P2;PMS_P1;PMS_P2;Temp;Humidity;BMP_temperature;BMP_pressure;BME280_temperature;BME280_humidity;BME280_pressure;Samples;Min_cycle;Max_cycle;Signal;HPM_P1;HPM_P2
2021/08/26 00:06:33;;;;;;;0.20;0.20;;;19.80;70.00;;;;;;5043704;28;20218;-86
2021/08/26 00:09:00;;;;;;;0.30;0.30;;;19.80;70.10;;;;;;5096670;28;20233;-87
2021/08/26 00:11:29;;;;;;;0.10;0.10;;;19.70;70.20;;;;;;5096612;28;20551;-87
2021/08/26 00:13:56;;;;;;;0.10;0.10;;;19.80;70.30;;;;;;5093554;28;20634;-86
2021/08/26 00:16:25;;;;;;;0.10;0.10;;;19.80;70.30;;;;;;5111081;28;20303;-86
2021/08/26 00:18:53;;;;;;;0.10;0.10;;;19.80;70.30;;;;;;5104133;28;20217;-86
2021/08/26 00:21:20;;;;;;;0.00;0.00;;;19.70;70.30;;;;;;5096355;28;20205;-86
2021/08/26 00:23:47;;;;;;;0.30;0.30;;;19.70;70.40;;;;;;5096453;28;20205;-86
2021/08/26 00:26:14;;;;;;;0.00;0.00;;;19.70;70.60;;;;;;5097661;28;20213;-86
2021/08/26 00:28:41;;;;;;;0.10;0.10;;;19.60;70.70;;;;;;5097068;28;20595;-86
2021/08/26 00:31:08;;;;;;;0.10;0.10;;;19.60;70.90;;;;;;5096366;28;20573;-86
2021/08/26 00:33:36;;;;;;;0.00;0.00;;;19.60;71.10;;;;;;5096445;28;20237;-87
2021/08/26 00:36:03;;;;;;;0.10;0.10;;;19.60;71.20;;;;;;5076186;28;20251;-86
2021/08/26 00:38:31;;;;;;;0.00;0.00;;;19.60;71.30;;;;;;5075034;28;20217;-86
2021/08/26 00:40:59;;;;;;;0.10;0.10;;;19.50;71.50;;;;;;5075895;28;20270;-86
2021/08/26 00:43:31;;;;;;;0.00;0.00;;;19.40;71.80;;;;;;5088778;28;20206;-86
2021/08/26 00:45:58;;;;;;;0.10;0.10;;;19.40;72.00;;;;;;5096392;28;20208;-86
2021/08/26 00:48:27;;;;;;;0.00;0.00;;;19.30;72.10;;;;;;5092349;28;20209;-87
2021/08/26 00:50:56;;;;;;;0.10;0.10;;;19.30;72.30;;;;;;5106372;28;20672;-86
2021/08/26 00:53:24;;;;;;;0.00;0.00;;;19.30;72.40;;;;;;5116651;28;20260;-86
2021/08/26 00:55:55;;;;;;;0.13;0.13;;;19.30;72.50;;;;;;5106166;28;20220;-86
2021/08/26 00:58:22;;;;;;;0.00;0.00;;;19.20;72.70;;;;;;5103844;28;20335;-86
2021/08/26 01:00:52;;;;;;;0.00;0.00;;;19.20;73.20;;;;;;5111202;28;20243;-87
2021/08/26 01:03:28;;;;;;;0.10;0.10;;;19.10;73.50;;;;;;5106529;28;20568;-87
2021/08/26 01:06:00;;;;;;;0.00;0.00;;;19.10;73.60;;;;;;5110450;28;20262;-86
2021/08/26 01:08:36;;;;;;;0.00;0.00;;;19.10;73.70;;;;;;5095543;28;20208;-86
2021/08/26 01:11:05;;;;;;;0.77;0.77;;;19.10;73.70;;;;;;5095714;28;20225;-87
2021/08/26 01:13:40;;;;;;;0.13;0.13;;;19.10;73.70;;;;;;5095693;28;20634;-86
2021/08/26 01:16:12;;;;;;;0.00;0.00;;;19.10;73.70;;;;;;5095457;28;20208;-86
2021/08/26 01:18:41;;;;;;;0.30;0.30;;;19.10;73.70;;;;;;5095244;28;20217;-86
2021/08/26 01:21:10;;;;;;;0.00;0.00;;;19.10;73.70;;;;;;5095217;28;20220;-86
2021/08/26 01:23:46;;;;;;;0.10;0.10;;;19.10;73.70;;;;;;5103253;28;20244;-86
2021/08/26 01:26:21;;;;;;;0.30;0.30;;;19.10;73.70;;;;;;5115722;28;20219;-86
2021/08/26 01:28:50;;;;;;;0.00;0.00;;;19.10;73.80;;;;;;5110773;28;20201;-87
2021/08/26 01:31:19;;;;;;;0.00;0.00;;;19.10;73.90;;;;;;5106437;28;20231;-87
2021/08/26 01:33:55;;;;;;;0.07;0.07;;;19.10;74.00;;;;;;5116580;28;20200;-86
2021/08/26 01:36:24;;;;;;;0.10;0.10;;;19.10;74.20;;;;;;5104717;28;20687;-87
2021/08/26 01:38:52;;;;;;;0.07;0.07;;;19.00;74.20;;;;;;5115432;28;20219;-86
2021/08/26 01:41:19;;;;;;;0.00;0.00;;;19.00;74.30;;;;;;5097595;28;20627;-87
2021/08/26 01:43:47;;;;;;;0.10;0.10;;;19.00;74.40;;;;;;5094819;28;20201;-87
2021/08/26 01:46:18;;;;;;;0.10;0.10;;;19.00;74.60;;;;;;5094973;28;20225;-87
2021/08/26 01:48:45;;;;;;;0.00;0.00;;;19.00;74.70;;;;;;5099557;28;20221;-87
2021/08/26 01:51:12;;;;;;;0.20;0.20;;;19.00;74.70;;;;;;5091491;28;20566;-87
2021/08/26 01:53:40;;;;;;;0.10;0.10;;;19.00;74.80;;;;;;5091680;28;20209;-87
2021/08/26 01:56:07;;;;;;;0.10;0.10;;;19.00;74.90;;;;;;5075743;28;20206;-87
2021/08/26 01:58:34;;;;;;;0.10;0.10;;;19.00;74.90;;;;;;5091593;28;20210;-87
2021/08/26 02:01:02;;;;;;;0.10;0.10;;;19.00;75.00;;;;;;5075110;28;20662;-87
2021/08/26 02:03:29;;;;;;;0.10;0.10;;;18.90;75.00;;;;;;5091597;28;20225;-87
2021/08/26 02:05:57;;;;;;;0.10;0.10;;;18.90;75.00;;;;;;5107073;28;20303;-87
2021/08/26 02:08:24;;;;;;;0.00;0.00;;;18.80;74.80;;;;;;5115254;28;20201;-88
2021/08/26 02:10:51;;;;;;;2.13;1.40;;;18.70;74.40;;;;;;5103621;28;20595;-86
2021/08/26 02:13:19;;;;;;;0.10;0.10;;;18.50;74.50;;;;;;5094100;28;20966;-87
2021/08/26 02:15:46;;;;;;;0.80;0.80;;;18.40;74.60;;;;;;5082511;28;20220;-86
2021/08/26 02:18:21;;;;;;;0.63;0.63;;;18.40;75.10;;;;;;5114824;28;20230;-87
2021/08/26 02:20:49;;;;;;;0.27;0.27;;;18.40;75.50;;;;;;5111983;28;20208;-87
2021/08/26 02:23:16;;;;;;;0.10;0.10;;;18.30;75.80;;;;;;5113448;28;20220;-86
2021/08/26 02:25:43;;;;;;;0.03;0.03;;;18.30;75.90;;;;;;5114446;28;20693;-87
2021/08/26 02:28:10;;;;;;;0.00;0.00;;;18.40;75.80;;;;;;5107038;28;20215;-86
2021/08/26 02:30:38;;;;;;;0.00;0.00;;;18.40;75.70;;;;;;5107017;28;20545;-86
2021/08/26 02:33:05;;;;;;;0.30;0.30;;;18.40;75.80;;;;;;5095744;28;20633;-87
2021/08/26 02:35:32;;;;;;;0.10;0.10;;;18.40;76.00;;;;;;5110295;28;20302;-86
2021/08/26 02:37:59;;;;;;;0.40;0.40;;;18.30;76.20;;;;;;5110135;28;20205;-87
2021/08/26 02:40:27;;;;;;;0.27;0.27;;;18.30;76.30;;;;;;5093873;28;20208;-87
2021/08/26 02:42:54;;;;;;;0.00;0.00;;;18.30;76.40;;;;;;5096911;28;20227;-87
2021/08/26 02:45:22;;;;;;;0.00;0.00;;;18.30;76.30;;;;;;5114568;28;20217;-87
2021/08/26 02:47:49;;;;;;;0.00;0.00;;;18.30;76.30;;;;;;5100849;28;20221;-87
2021/08/26 02:50:16;;;;;;;0.10;0.10;;;18.20;76.20;;;;;;5097435;28;20630;-87
2021/08/26 02:52:43;;;;;;;0.00;0.00;;;18.20;76.20;;;;;;5105073;28;20560;-87
2021/08/26 02:55:11;;;;;;;0.10;0.10;;;18.20;76.30;;;;;;5093542;28;20553;-87
2021/08/26 02:57:38;;;;;;;1.27;1.17;;;18.10;76.20;;;;;;5097513;28;20223;-87
2021/08/26 03:00:06;;;;;;;0.00;0.00;;;18.10;76.30;;;;;;5102777;28;20701;-87
2021/08/26 03:02:34;;;;;;;0.10;0.10;;;18.10;76.40;;;;;;5103246;28;20216;-88
2021/08/26 03:05:02;;;;;;;1.60;1.50;;;18.10;76.20;;;;;;5098235;28;20205;-87
2021/08/26 03:07:29;;;;;;;0.00;0.00;;;18.10;76.30;;;;;;5110355;28;20641;-87
2021/08/26 03:09:56;;;;;;;0.10;0.10;;;17.90;76.50;;;;;;5117927;28;20628;-86
2021/08/26 03:12:23;;;;;;;0.10;0.10;;;17.80;76.70;;;;;;5113580;28;20286;-86
2021/08/26 03:14:50;;;;;;;0.53;0.53;;;17.70;76.90;;;;;;5102032;28;20209;-86
2021/08/26 03:17:17;;;;;;;0.00;0.00;;;17.60;77.20;;;;;;5104777;28;20215;-87
2021/08/26 03:19:44;;;;;;;0.10;0.10;;;17.60;77.50;;;;;;5115708;28;20208;-86
2021/08/26 03:22:11;;;;;;;0.10;0.10;;;17.60;77.80;;;;;;5098638;28;20201;-86
2021/08/26 03:24:38;;;;;;;0.00;0.00;;;17.60;78.20;;;;;;5112308;28;20220;-87
2021/08/26 03:27:05;;;;;;;0.00;0.00;;;17.60;78.20;;;;;;5113871;28;20220;-86
2021/08/26 03:29:32;;;;;;;0.10;0.10;;;17.60;78.10;;;;;;5118213;28;20269;-87
2021/08/26 03:32:00;;;;;;;0.40;0.40;;;17.70;77.90;;;;;;5110684;28;20255;-86
2021/08/26 03:34:27;;;;;;;0.10;0.10;;;17.70;77.70;;;;;;5097127;28;20236;-86
2021/08/26 03:36:54;;;;;;;0.00;0.00;;;17.70;77.50;;;;;;5097033;28;20205;-87
2021/08/26 03:39:22;;;;;;;0.00;0.00;;;17.60;77.40;;;;;;5100563;28;20223;-86
2021/08/26 03:41:49;;;;;;;0.10;0.10;;;17.60;76.80;;;;;;5113603;28;20212;-86
2021/08/26 03:44:16;;;;;;;0.07;0.07;;;17.50;77.20;;;;;;5117754;28;20227;-86
2021/08/26 03:46:43;;;;;;;0.07;0.07;;;17.40;77.40;;;;;;5114295;28;20607;-86
2021/08/26 03:49:10;;;;;;;0.10;0.10;;;17.40;77.50;;;;;;5112073;28;20208;-86
2021/08/26 03:51:37;;;;;;;0.00;0.00;;;17.40;77.50;;;;;;5109890;28;20319;-86
2021/08/26 03:54:05;;;;;;;0.10;0.10;;;17.50;77.40;;;;;;5098426;28;20216;-86
2021/08/26 03:56:32;;;;;;;0.00;0.00;;;17.50;77.30;;;;;;5104304;28;20222;-86
2021/08/26 03:59:00;;;;;;;0.10;0.10;;;17.50;77.20;;;;;;5110956;28;20250;-87
2021/08/26 04:01:27;;;;;;;0.10;0.10;;;17.50;77.90;;;;;;5109149;28;20248;-87
2021/08/26 04:03:55;;;;;;;0.10;0.10;;;17.50;77.30;;;;;;5105388;28;20650;-86
2021/08/26 04:06:22;;;;;;;0.10;0.10;;;17.50;77.50;;;;;;5106934;28;20254;-86
2021/08/26 04:08:49;;;;;;;0.10;0.10;;;17.50;77.60;;;;;;5093807;28;20580;-86
2021/08/26 04:11:16;;;;;;;0.50;0.50;;;17.50;77.50;;;;;;5099790;28;20224;-86
2021/08/26 04:13:43;;;;;;;0.10;0.10;;;17.50;77.40;;;;;;5096733;28;20682;-87
2021/08/26 04:16:10;;;;;;;0.00;0.00;;;17.40;77.70;;;;;;5095395;28;20216;-86
2021/08/26 04:18:37;;;;;;;0.00;0.00;;;17.30;77.90;;;;;;5095297;28;20209;-86
2021/08/26 04:21:04;;;;;;;0.10;0.10;;;17.20;78.20;;;;;;5109706;28;20223;-86
2021/08/26 04:23:31;;;;;;;0.10;0.10;;;17.20;78.60;;;;;;5098068;28;20216;-87
2021/08/26 04:25:58;;;;;;;0.10;0.10;;;17.10;78.90;;;;;;5108381;28;20269;-87
2021/08/26 04:28:26;;;;;;;0.07;0.07;;;17.10;78.90;;;;;;5104700;28;20201;-86
2021/08/26 04:30:53;;;;;;;0.10;0.10;;;17.00;79.00;;;;;;5094930;28;20209;-86
2021/08/26 04:33:20;;;;;;;0.10;0.10;;;17.10;79.20;;;;;;5095028;28;20235;-87
2021/08/26 04:35:47;;;;;;;0.10;0.10;;;17.10;79.10;;;;;;5094815;28;20296;-86
2021/08/26 04:38:14;;;;;;;0.10;0.10;;;17.20;78.90;;;;;;5095857;28;20212;-86
2021/08/26 04:40:41;;;;;;;0.10;0.10;;;17.20;78.70;;;;;;5115296;28;20208;-86
2021/08/26 04:43:08;;;;;;;0.20;0.20;;;17.30;78.50;;;;;;5115444;28;20224;-86
2021/08/26 04:45:36;;;;;;;0.10;0.10;;;17.30;78.40;;;;;;5095213;28;20228;-85
2021/08/26 04:48:03;;;;;;;0.10;0.10;;;17.30;78.20;;;;;;5094944;28;20209;-86
2021/08/26 04:50:30;;;;;;;0.10;0.10;;;17.40;78.10;;;;;;5098543;28;20220;-86
2021/08/26 04:52:57;;;;;;;0.00;0.00;;;17.40;77.90;;;;;;5115538;28;20239;-86
2021/08/26 04:55:24;;;;;;;0.00;0.00;;;17.40;77.70;;;;;;5115119;28;20219;-86
2021/08/26 04:57:51;;;;;;;0.10;0.10;;;17.40;77.70;;;;;;5107668;28;20213;-86
2021/08/26 05:00:19;;;;;;;0.10;0.10;;;17.40;77.70;;;;;;5099988;28;20243;-86
2021/08/26 05:02:47;;;;;;;0.00;0.00;;;17.40;77.70;;;;;;5099912;28;20209;-86
2021/08/26 05:05:14;;;;;;;0.00;0.00;;;17.50;77.70;;;;;;5106099;28;20584;-87
2021/08/26 05:07:41;;;;;;;0.10;0.10;;;17.50;77.20;;;;;;5102424;28;20258;-87
2021/08/26 05:10:09;;;;;;;0.10;0.10;;;17.50;76.70;;;;;;5048906;28;1319314;-87
2021/08/26 05:12:36;;;;;;;0.00;0.00;;;17.40;76.10;;;;;;5095290;28;20240;-87
2021/08/26 05:15:05;;;;;;;0.10;0.10;;;17.40;76.50;;;;;;5101075;28;20216;-87
2021/08/26 05:17:32;;;;;;;0.00;0.00;;;17.50;76.70;;;;;;5116240;28;20277;-86
2021/08/26 05:19:59;;;;;;;0.10;0.10;;;17.70;77.10;;;;;;5106662;28;20213;-87
2021/08/26 05:22:26;;;;;;;0.10;0.10;;;17.90;77.50;;;;;;5092010;28;20220;-87
2021/08/26 05:24:54;;;;;;;0.00;0.00;;;18.30;77.30;;;;;;5101589;28;20640;-87
2021/08/26 05:27:21;;;;;;;0.00;0.00;;;18.80;76.60;;;;;;5115869;28;20216;-87
2021/08/26 05:29:48;;;;;;;0.30;0.30;;;19.20;75.50;;;;;;5115962;28;20230;-87
2021/08/26 05:32:19;;;;;;;0.10;0.10;;;19.70;74.20;;;;;;5100644;28;20228;-87
2021/08/26 05:34:46;;;;;;;0.10;0.10;;;20.00;72.70;;;;;;5115287;28;20265;-87
2021/08/26 05:37:13;;;;;;;0.60;0.60;;;20.20;71.90;;;;;;5097126;28;20209;-87
2021/08/26 05:39:41;;;;;;;0.10;0.10;;;20.30;71.40;;;;;;5103091;28;20251;-88
2021/08/26 05:42:08;;;;;;;0.10;0.10;;;20.20;71.20;;;;;;5108209;28;20270;-87
2021/08/26 05:44:35;;;;;;;0.10;0.10;;;20.20;71.50;;;;;;5108470;28;20212;-87
2021/08/26 05:47:02;;;;;;;0.00;0.00;;;20.10;71.80;;;;;;5114411;28;20208;-87
2021/08/26 05:49:29;;;;;;;0.00;0.00;;;20.10;71.90;;;;;;5097717;28;20220;-87
2021/08/26 05:51:56;;;;;;;0.10;0.10;;;20.20;71.80;;;;;;5094538;28;20595;-87
2021/08/26 05:54:23;;;;;;;0.00;0.00;;;20.20;71.80;;;;;;5094857;28;20220;-87
2021/08/26 05:56:51;;;;;;;0.00;0.00;;;20.20;71.70;;;;;;5094606;28;20201;-88
2021/08/26 05:59:18;;;;;;;0.10;0.10;;;20.30;71.60;;;;;;5098157;28;20236;-87
2021/08/26 06:01:45;;;;;;;0.10;0.10;;;20.30;71.90;;;;;;5099103;28;20264;-86
2021/08/26 06:04:13;;;;;;;0.40;0.40;;;20.40;71.80;;;;;;5106449;28;20209;-87
2021/08/26 06:06:40;;;;;;;1.20;1.03;;;20.60;71.60;;;;;;5114935;28;20209;-88
2021/08/26 06:09:08;;;;;;;0.10;0.10;;;20.70;71.30;;;;;;5106030;28;20252;-87
2021/08/26 06:11:35;;;;;;;0.37;0.37;;;20.90;70.90;;;;;;5107839;28;20212;-87
2021/08/26 06:14:03;;;;;;;0.13;0.13;;;21.00;70.70;;;;;;5100745;28;20623;-87
2021/08/26 06:16:30;;;;;;;0.07;0.07;;;21.10;70.70;;;;;;5107815;28;20208;-87
2021/08/26 06:18:57;;;;;;;0.10;0.10;;;21.30;70.50;;;;;;5102953;28;20248;-88
2021/08/26 06:21:24;;;;;;;0.10;0.10;;;21.60;70.10;;;;;;5102223;28;20286;-88
2021/08/26 06:23:51;;;;;;;0.20;0.20;;;21.90;69.40;;;;;;5103829;28;20289;-87
2021/08/26 06:26:18;;;;;;;0.30;0.30;;;22.00;68.40;;;;;;5106556;28;20888;-87
2021/08/26 06:28:45;;;;;;;0.10;0.10;;;22.10;67.70;;;;;;5110620;28;20212;-88
2021/08/26 06:31:13;;;;;;;0.10;0.10;;;22.20;67.90;;;;;;5105242;28;20563;-87
2021/08/26 06:33:40;;;;;;;0.30;0.30;;;22.30;67.70;;;;;;5109320;28;20316;-88
2021/08/26 06:36:07;;;;;;;0.03;0.03;;;22.40;67.00;;;;;;5096893;28;20208;-88
2021/08/26 06:38:35;;;;;;;0.00;0.00;;;22.50;66.80;;;;;;5107828;28;20223;-88
2021/08/26 06:41:03;;;;;;;0.00;0.00;;;22.60;66.20;;;;;;5107013;28;20208;-88
2021/08/26 06:43:30;;;;;;;0.03;0.03;;;22.70;65.70;;;;;;5094068;28;20552;-87
2021/08/26 06:45:57;;;;;;;0.10;0.10;;;22.60;65.50;;;;;;5093403;28;20217;-88
2021/08/26 06:48:24;;;;;;;0.10;0.10;;;22.60;65.50;;;;;;5093831;28;20213;-87
2021/08/26 06:50:51;;;;;;;0.10;0.10;;;22.50;65.50;;;;;;5093525;28;20216;-87
2021/08/26 06:53:18;;;;;;;0.00;0.00;;;22.60;65.50;;;;;;5093110;28;20229;-88
2021/08/26 06:55:45;;;;;;;0.10;0.10;;;22.70;65.30;;;;;;5093768;28;20208;-87
2021/08/26 06:58:13;;;;;;;0.00;0.00;;;22.80;64.80;;;;;;5104726;28;20214;-88
2021/08/26 07:00:40;;;;;;;0.00;0.00;;;22.90;64.80;;;;;;5104069;28;20212;-88
2021/08/26 07:03:08;;;;;;;0.00;0.00;;;23.20;64.60;;;;;;5103538;28;20213;-87
2021/08/26 07:05:37;;;;;;;0.10;0.10;;;23.50;64.20;;;;;;5094677;28;20219;-86
2021/08/26 07:08:05;;;;;;;0.00;0.00;;;23.70;63.70;;;;;;5101562;28;20229;-86
2021/08/26 07:10:32;;;;;;;0.00;0.00;;;24.00;62.60;;;;;;5093512;28;20240;-86
2021/08/26 07:12:59;;;;;;;0.10;0.10;;;24.00;62.00;;;;;;5096824;28;20233;-87
2021/08/26 07:15:29;;;;;;;0.00;0.00;;;24.20;62.00;;;;;;5102940;28;20209;-86
2021/08/26 07:17:56;;;;;;;0.00;0.00;;;24.40;61.70;;;;;;5093919;28;20221;-85
2021/08/26 07:20:23;;;;;;;0.00;0.00;;;24.60;61.10;;;;;;5093508;28;20756;-87
2021/08/26 07:22:50;;;;;;;0.00;0.00;;;24.70;59.90;;;;;;5100834;28;20227;-87
2021/08/26 07:25:18;;;;;;;0.00;0.00;;;24.80;60.10;;;;;;5099217;28;20231;-85
2021/08/26 07:27:45;;;;;;;0.00;0.00;;;24.90;59.50;;;;;;5107276;28;20216;-87
2021/08/26 07:30:12;;;;;;;0.20;0.20;;;25.00;59.60;;;;;;5098290;28;20213;-87
2021/08/26 07:32:40;;;;;;;0.00;0.00;;;25.10;58.40;;;;;;5100209;28;20619;-85
2021/08/26 07:35:08;;;;;;;0.40;0.40;;;25.20;58.90;;;;;;5114883;28;20258;-85
2021/08/26 07:37:36;;;;;;;0.00;0.00;;;25.30;59.10;;;;;;5113439;28;20531;-86
2021/08/26 07:40:05;;;;;;;0.00;0.00;;;25.50;58.80;;;;;;5093941;28;20209;-84
2021/08/26 07:42:32;;;;;;;0.00;0.00;;;25.70;58.60;;;;;;5095233;28;20235;-83
2021/08/26 07:45:03;;;;;;;0.03;0.03;;;25.90;58.30;;;;;;5095256;28;20216;-85
2021/08/26 07:47:30;;;;;;;0.10;0.10;;;26.20;58.00;;;;;;5105852;28;20481;-85
2021/08/26 07:50:04;;;;;;;0.00;0.00;;;26.30;57.10;;;;;;5105177;28;20209;-86
2021/08/26 07:52:31;;;;;;;0.00;0.00;;;26.40;57.00;;;;;;5114007;28;20221;-84
2021/08/26 07:54:59;;;;;;;0.00;0.00;;;26.60;56.90;;;;;;5108798;28;20242;-84
2021/08/26 07:57:27;;;;;;;0.00;0.00;;;26.80;56.70;;;;;;5076862;28;20543;-85
2021/08/26 07:59:54;;;;;;;0.00;0.00;;;27.00;56.40;;;;;;5077834;28;20635;-85
2021/08/26 08:02:21;;;;;;;0.00;0.00;;;27.20;56.00;;;;;;5080192;28;20224;-85
2021/08/26 08:04:52;;;;;;;0.10;0.10;;;27.30;55.50;;;;;;5092307;28;20205;-85
2021/08/26 08:07:19;;;;;;;0.00;0.00;;;27.40;54.80;;;;;;5105758;28;20227;-86
2021/08/26 08:09:46;;;;;;;0.10;0.10;;;27.60;54.60;;;;;;5105980;28;20236;-84
2021/08/26 08:12:17;;;;;;;0.00;0.00;;;27.70;54.30;;;;;;5103698;28;20224;-86
2021/08/26 08:14:44;;;;;;;0.00;0.00;;;27.80;53.60;;;;;;5109105;28;20232;-85
2021/08/26 08:17:14;;;;;;;0.00;0.00;;;27.90;53.20;;;;;;5102155;28;20213;-85
2021/08/26 08:19:41;;;;;;;0.10;0.10;;;28.00;52.40;;;;;;5112879;28;20612;-85
2021/08/26 08:22:09;;;;;;;0.37;0.37;;;28.10;52.50;;;;;;5100345;28;20205;-86
2021/08/26 08:24:40;;;;;;;0.00;0.00;;;28.20;52.00;;;;;;5100024;28;20223;-87
2021/08/26 08:27:07;;;;;;;0.43;0.43;;;28.40;51.50;;;;;;5103725;28;20228;-85
2021/08/26 08:29:34;;;;;;;0.00;0.00;;;28.50;50.60;;;;;;5113085;28;20217;-86
2021/08/26 08:32:01;;;;;;;0.03;0.03;;;28.50;50.50;;;;;;5103590;28;20635;-85
2021/08/26 08:34:29;;;;;;;0.00;0.00;;;28.70;50.80;;;;;;5093581;28;20565;-85
2021/08/26 08:37:02;;;;;;;0.10;0.10;;;28.90;50.20;;;;;;5105754;28;20346;-85
2021/08/26 08:39:29;;;;;;;0.13;0.13;;;29.00;49.10;;;;;;5105822;28;20499;-87
2021/08/26 08:41:56;;;;;;;0.00;0.00;;;29.10;48.80;;;;;;5105813;28;20208;-87
2021/08/26 08:44:23;;;;;;;0.10;0.10;;;29.10;48.30;;;;;;5103134;28;20213;-86
2021/08/26 08:46:56;;;;;;;1.60;1.30;;;29.30;48.60;;;;;;5088473;28;20646;-89
2021/08/26 08:49:24;;;;;;;0.00;0.00;;;29.50;48.20;;;;;;5097712;28;20209;-85
2021/08/26 08:51:53;;;;;;;0.00;0.00;;;29.70;48.00;;;;;;5095896;28;20627;-87
2021/08/26 08:54:22;;;;;;;0.07;0.07;;;29.80;47.40;;;;;;5096962;28;20229;-86
2021/08/26 08:56:50;;;;;;;0.00;0.00;;;30.00;45.50;;;;;;5095538;28;20213;-86
2021/08/26 08:59:18;;;;;;;0.00;0.00;;;29.90;45.90;;;;;;5098378;28;20209;-85
2021/08/26 09:01:55;;;;;;;0.00;0.00;;;29.90;45.40;;;;;;5096803;28;20256;-86
2021/08/26 09:04:23;;;;;;;0.00;0.00;;;29.90;44.40;;;;;;5100765;28;20227;-87
2021/08/26 09:06:51;;;;;;;0.00;0.00;;;29.90;44.90;;;;;;5097594;28;20221;-86
2021/08/26 09:09:20;;;;;;;0.07;0.07;;;30.00;45.30;;;;;;5095961;28;20270;-87
2021/08/26 09:11:50;;;;;;;0.00;0.00;;;30.10;44.10;;;;;;5096379;28;20223;-88
2021/08/26 09:14:20;;;;;;;0.00;0.00;;;30.20;43.50;;;;;;5095900;28;20225;-87
2021/08/26 09:16:49;;;;;;;0.00;0.00;;;30.20;43.00;;;;;;5095767;28;20309;-87
2021/08/26 09:19:24;;;;;;;0.07;0.07;;;30.20;42.20;;;;;;5095683;28;20216;-87
2021/08/26 09:21:51;;;;;;;0.00;0.00;;;30.20;42.10;;;;;;5104736;28;20580;-88
2021/08/26 09:24:19;;;;;;;0.00;0.00;;;30.20;41.80;;;;;;5101612;28;20213;-87
2021/08/26 09:26:48;;;;;;;0.07;0.07;;;30.20;42.20;;;;;;5096219;28;20213;-88
2021/08/26 09:29:15;;;;;;;0.00;0.00;;;30.30;41.10;;;;;;5095880;28;20208;-88
2021/08/26 09:31:45;;;;;;;0.00;0.00;;;30.30;41.00;;;;;;5089206;28;20566;-88
2021/08/26 09:34:18;;;;;;;0.00;0.00;;;30.30;39.80;;;;;;5089398;28;20222;-88
2021/08/26 09:36:48;;;;;;;0.20;0.20;;;30.30;40.40;;;;;;5094919;28;20205;-86
2021/08/26 09:39:18;;;;;;;0.00;0.00;;;30.50;40.60;;;;;;5096230;28;20223;-87
2021/08/26 09:41:53;;;;;;;0.63;0.63;;;30.60;40.10;;;;;;5094953;28;20205;-87
2021/08/26 09:44:29;;;;;;;0.00;0.00;;;30.70;39.50;;;;;;5095121;28;20247;-88
2021/08/26 09:47:00;;;;;;;0.00;0.00;;;30.80;39.30;;;;;;5094910;28;20240;-87
2021/08/26 09:49:30;;;;;;;0.00;0.00;;;30.80;38.80;;;;;;5098711;28;20626;-88
2021/08/26 09:52:07;;;;;;;0.10;0.10;;;30.90;39.30;;;;;;5094748;28;20205;-86
2021/08/26 09:54:45;;;;;;;0.10;0.10;;;31.10;39.20;;;;;;5093932;28;20231;-87
2021/08/26 09:57:28;;;;;;;0.03;0.03;;;31.30;39.00;;;;;;5094828;28;20278;-88
2021/08/26 10:00:00;;;;;;;0.00;0.00;;;31.50;37.90;;;;;;5094192;28;20205;-87
2021/08/26 10:02:29;;;;;;;0.00;0.00;;;31.60;37.20;;;;;;5093254;28;20577;-87
2021/08/26 10:04:57;;;;;;;0.33;0.33;;;31.60;36.80;;;;;;5094549;28;20270;-88
2021/08/26 10:07:26;;;;;;;0.07;0.07;;;31.50;36.90;;;;;;5091728;28;20217;-88
2021/08/26 10:09:54;;;;;;;0.00;0.00;;;31.50;37.20;;;;;;5093868;28;20240;-88
2021/08/26 10:12:22;;;;;;;0.00;0.00;;;31.70;37.20;;;;;;5093899;28;20557;-87
2021/08/26 10:14:51;;;;;;;0.00;0.00;;;31.60;36.80;;;;;;5090153;28;20583;-87
2021/08/26 10:17:20;;;;;;;0.00;0.00;;;31.60;37.40;;;;;;5091509;28;20303;-87
2021/08/26 10:19:48;;;;;;;0.00;0.00;;;31.80;37.10;;;;;;5094285;28;20266;-87
2021/08/26 10:22:15;;;;;;;0.00;0.00;;;31.90;36.50;;;;;;5093968;28;20227;-88
2021/08/26 10:24:43;;;;;;;0.00;0.00;;;32.00;36.70;;;;;;5091829;28;20224;-87
2021/08/26 10:27:14;;;;;;;0.00;0.00;;;32.10;35.80;;;;;;5097798;28;20213;-88
2021/08/26 10:29:47;;;;;;;0.00;0.00;;;32.00;35.80;;;;;;5093999;28;20292;-88
2021/08/26 10:32:26;;;;;;;0.00;0.00;;;32.10;35.90;;;;;;5094507;28;20304;-88
2021/08/26 10:35:08;;;;;;;0.00;0.00;;;32.30;36.20;;;;;;5091487;28;20229;-88
2021/08/26 10:37:55;;;;;;;0.10;0.10;;;32.40;35.60;;;;;;5092544;28;20208;-88
2021/08/26 10:40:33;;;;;;;0.00;0.00;;;32.40;35.20;;;;;;5095752;28;20599;-88
2021/08/26 10:43:00;;;;;;;0.00;0.00;;;32.40;34.90;;;;;;5091277;28;20261;-87
2021/08/26 10:45:44;;;;;;;0.00;0.00;;;32.20;34.20;;;;;;5093643;28;20213;-86
2021/08/26 10:48:14;;;;;;;0.00;0.00;;;32.00;34.70;;;;;;5092801;28;20201;-86
2021/08/26 10:50:45;;;;;;;0.13;0.13;;;32.00;34.40;;;;;;5081505;28;20213;-88
2021/08/26 10:53:28;;;;;;;0.00;0.00;;;31.90;34.70;;;;;;5096423;28;20223;-86
2021/08/26 10:55:58;;;;;;;0.00;0.00;;;32.10;34.90;;;;;;5094461;28;20212;-86
2021/08/26 10:58:25;;;;;;;0.00;0.00;;;32.20;34.50;;;;;;5094211;28;20231;-87
2021/08/26 11:01:00;;;;;;;0.10;0.10;;;32.20;34.20;;;;;;5094145;28;20216;-87
2021/08/26 11:03:34;;;;;;;0.00;0.00;;;32.20;34.80;;;;;;5111546;28;20220;-86
2021/08/26 11:06:27;;;;;;;0.00;0.00;;;32.20;34.50;;;;;;5102156;28;20213;-87
2021/08/26 11:09:18;;;;;;;0.00;0.00;;;32.20;34.50;;;;;;5097937;28;20255;-87
2021/08/26 11:11:47;;;;;;;0.00;0.00;;;32.10;34.90;;;;;;5095371;28;20216;-85
2021/08/26 11:14:19;;;;;;;0.00;0.00;;;32.00;35.30;;;;;;5086254;28;20319;-85
2021/08/26 11:16:50;;;;;;;0.00;0.00;;;31.90;35.30;;;;;;5108303;28;20228;-87
2021/08/26 11:19:17;;;;;;;0.10;0.10;;;31.80;35.30;;;;;;5110795;28;20292;-86
2021/08/26 11:21:44;;;;;;;0.00;0.00;;;31.80;35.20;;;;;;5107200;28;20216;-85
2021/08/26 11:24:22;;;;;;;0.00;0.00;;;31.70;35.10;;;;;;5106153;28;20223;-87
2021/08/26 11:26:53;;;;;;;0.00;0.00;;;31.60;35.40;;;;;;5077582;28;20566;-87
2021/08/26 11:29:20;;;;;;;0.00;0.00;;;31.60;35.60;;;;;;5117110;28;20208;-87
2021/08/26 11:32:03;;;;;;;0.00;0.00;;;31.80;35.90;;;;;;5102176;28;20209;-87
2021/08/26 11:34:49;;;;;;;0.10;0.10;;;32.10;35.80;;;;;;5078194;28;20351;-86
2021/08/26 11:37:31;;;;;;;0.00;0.00;;;32.30;35.80;;;;;;5084590;28;20209;-86
2021/08/26 11:40:10;;;;;;;1.53;1.50;;;32.50;35.60;;;;;;5097030;28;20288;-84
2021/08/26 11:42:43;;;;;;;0.10;0.10;;;32.70;34.90;;;;;;5087229;28;20301;-85
2021/08/26 11:45:22;;;;;;;0.30;0.30;;;32.50;34.80;;;;;;5108356;28;20220;-87
2021/08/26 11:47:54;;;;;;;0.00;0.00;;;32.30;34.50;;;;;;5097977;28;20209;-87
2021/08/26 11:50:28;;;;;;;0.00;0.00;;;32.20;34.80;;;;;;5098126;28;20716;-88
2021/08/26 11:53:01;;;;;;;0.00;0.00;;;32.20;35.30;;;;;;5107778;28;20225;-86
2021/08/26 11:55:36;;;;;;;0.00;0.00;;;32.20;35.00;;;;;;5117759;28;20230;-88
2021/08/26 11:58:07;;;;;;;0.00;0.00;;;32.30;35.40;;;;;;5117679;28;20197;-87
2021/08/26 12:00:39;;;;;;;0.10;0.10;;;32.50;35.50;;;;;;5117993;28;20223;-88
2021/08/26 12:03:06;;;;;;;0.00;0.00;;;32.60;35.20;;;;;;5117944;28;20205;-87
2021/08/26 12:05:34;;;;;;;0.00;0.00;;;32.70;35.10;;;;;;5113683;28;20240;-87
2021/08/26 12:08:06;;;;;;;0.00;0.00;;;32.70;35.40;;;;;;5097292;28;20218;-88
2021/08/26 12:10:39;;;;;;;0.00;0.00;;;32.80;35.80;;;;;;5097615;28;20324;-88
2021/08/26 12:13:15;;;;;;;0.00;0.00;;;33.00;35.90;;;;;;5093108;28;20221;-88
2021/08/26 12:15:45;;;;;;;0.00;0.00;;;33.10;35.60;;;;;;5076057;28;20286;-86
2021/08/26 12:18:25;;;;;;;0.00;0.00;;;33.20;35.40;;;;;;5076746;28;20213;-86
2021/08/26 12:21:02;;;;;;;0.00;0.00;;;33.10;34.30;;;;;;5086574;28;20228;-85
2021/08/26 12:23:31;;;;;;;0.00;0.00;;;32.90;34.80;;;;;;5099886;28;20687;-85
2021/08/26 12:26:12;;;;;;;0.47;0.47;;;32.70;35.00;;;;;;5097063;28;20593;-85
2021/08/26 12:28:45;;;;;;;0.00;0.00;;;32.50;35.10;;;;;;5099252;28;20223;-86
2021/08/26 12:31:15;;;;;;;0.00;0.00;;;32.30;35.20;;;;;;5107712;28;20220;-86
2021/08/26 12:34:08;;;;;;;0.20;0.20;;;32.20;35.60;;;;;;5114394;28;20204;-85
2021/08/26 12:36:42;;;;;;;0.00;0.00;;;32.20;35.70;;;;;;5090059;28;20703;-87
2021/08/26 12:39:19;;;;;;;0.07;0.07;;;32.20;35.80;;;;;;5080632;28;20202;-85
2021/08/26 12:42:06;;;;;;;0.00;0.00;;;32.30;35.90;;;;;;5111129;28;20281;-87
2021/08/26 12:44:34;;;;;;;0.00;0.00;;;32.50;36.00;;;;;;5115931;28;20595;-87
2021/08/26 12:47:06;;;;;;;0.00;0.00;;;32.60;36.00;;;;;;5097370;28;20216;-86
2021/08/26 12:49:47;;;;;;;0.00;0.00;;;32.70;35.90;;;;;;5096229;28;20190;-87
2021/08/26 12:52:16;;;;;;;0.00;0.00;;;32.80;35.90;;;;;;5096295;28;20651;-87
2021/08/26 12:54:44;;;;;;;0.00;0.00;;;32.90;35.40;;;;;;5113491;28;20232;-85
2021/08/26 12:57:19;;;;;;;0.00;0.00;;;32.80;35.10;;;;;;5106168;28;20213;-85
2021/08/26 12:59:47;;;;;;;0.00;0.00;;;32.60;35.20;;;;;;5082293;28;20209;-87
2021/08/26 13:02:14;;;;;;;0.00;0.00;;;32.40;35.30;;;;;;5076163;28;20216;-87
2021/08/26 13:04:42;;;;;;;0.10;0.10;;;32.40;35.70;;;;;;5076133;28;20217;-88